sensor_id;sensor_type;location;lat;lon;timestamp;pressure;altitude;pressure_sealevel;temperature
69186;BMP280;56298;49.246;9.410;2023-01-29T00:01:03;100634.53;;;0.71
69186;BMP280;56298;49.246;9.410;2023-01-29T00:03:28;100634.88;;;0.58
69186;BMP280;56298;49.246;9.410;2023-01-29T00:05:53;100639.16;;;0.53
69186;BMP280;56298;49.246;9.410;2023-01-29T00:08:18;100630.81;;;0.55
69186;BMP280;56298;49.246;9.410;2023-01-29T00:10:44;100634.34;;;0.56
69186;BMP280;56298;49.246;9.410;2023-01-29T00:13:09;100635.06;;;0.51
69186;BMP280;56298;49.246;9.410;2023-01-29T00:15:34;100632.38;;;0.51
69186;BMP280;56298;49.246;9.410;2023-01-29T00:17:59;100633.94;;;0.47
69186;BMP280;56298;49.246;9.410;2023-01-29T00:20:25;100635.75;;;0.41
69186;BMP280;56298;49.246;9.410;2023-01-29T00:22:50;100633.13;;;0.46
69186;BMP280;56298;49.246;9.410;2023-01-29T00:25:15;100638.22;;;0.43
69186;BMP280;56298;49.246;9.410;2023-01-29T00:27:40;100635.59;;;0.48
69186;BMP280;56298;49.246;9.410;2023-01-29T00:30:06;100642.19;;;0.40
69186;BMP280;56298;49.246;9.410;2023-01-29T00:32:43;100640.81;;;0.37
69186;BMP280;56298;49.246;9.410;2023-01-29T00:35:08;100644.41;;;0.43
69186;BMP280;56298;49.246;9.410;2023-01-29T00:37:34;100641.53;;;0.50
69186;BMP280;56298;49.246;9.410;2023-01-29T00:39:59;100645.31;;;0.49
69186;BMP280;56298;49.246;9.410;2023-01-29T00:42:24;100650.22;;;0.52
69186;BMP280;56298;49.246;9.410;2023-01-29T00:45:09;100648.63;;;0.56
69186;BMP280;56298;49.246;9.410;2023-01-29T00:47:34;100640.97;;;0.48
69186;BMP280;56298;49.246;9.410;2023-01-29T00:50:02;100638.28;;;0.48
69186;BMP280;56298;49.246;9.410;2023-01-29T00:52:28;100639.00;;;0.43
69186;BMP280;56298;49.246;9.410;2023-01-29T00:54:55;100638.63;;;0.34
69186;BMP280;56298;49.246;9.410;2023-01-29T00:57:22;100632.72;;;0.37
69186;BMP280;56298;49.246;9.410;2023-01-29T00:59:47;100626.72;;;0.30
69186;BMP280;56298;49.246;9.410;2023-01-29T01:02:13;100619.34;;;0.25
69186;BMP280;56298;49.246;9.410;2023-01-29T01:04:57;100622.97;;;-0.03
69186;BMP280;56298;49.246;9.410;2023-01-29T01:07:22;100629.44;;;-0.04
69186;BMP280;56298;49.246;9.410;2023-01-29T01:09:47;100634.25;;;-0.06
69186;BMP280;56298;49.246;9.410;2023-01-29T01:12:31;100625.59;;;-0.08
69186;BMP280;56298;49.246;9.410;2023-01-29T01:14:56;100630.00;;;-0.02
69186;BMP280;56298;49.246;9.410;2023-01-29T01:17:22;100630.97;;;-0.08
69186;BMP280;56298;49.246;9.410;2023-01-29T01:19:47;100634.63;;;-0.15
69186;BMP280;56298;49.246;9.410;2023-01-29T01:22:13;100633.84;;;0.02
69186;BMP280;56298;49.246;9.410;2023-01-29T01:24:38;100626.00;;;0.01
69186;BMP280;56298;49.246;9.410;2023-01-29T01:27:04;100625.41;;;0.16
69186;BMP280;56298;49.246;9.410;2023-01-29T01:29:29;100626.56;;;0.20
69186;BMP280;56298;49.246;9.410;2023-01-29T01:31:54;100633.91;;;0.07
69186;BMP280;56298;49.246;9.410;2023-01-29T01:34:20;100622.72;;;-0.02
69186;BMP280;56298;49.246;9.410;2023-01-29T01:36:46;100624.69;;;-0.14
69186;BMP280;56298;49.246;9.410;2023-01-29T01:39:11;100628.91;;;-0.18
69186;BMP280;56298;49.246;9.410;2023-01-29T01:41:37;100628.13;;;-0.19
69186;BMP280;56298;49.246;9.410;2023-01-29T01:44:04;100625.66;;;-0.03
69186;BMP280;56298;49.246;9.410;2023-01-29T01:46:35;100629.75;;;-0.18
69186;BMP280;56298;49.246;9.410;2023-01-29T01:49:13;100626.38;;;-0.08
69186;BMP280;56298;49.246;9.410;2023-01-29T01:51:42;100634.81;;;-0.04
69186;BMP280;56298;49.246;9.410;2023-01-29T01:54:12;100633.00;;;0.02
69186;BMP280;56298;49.246;9.410;2023-01-29T01:56:42;100623.88;;;0.03
69186;BMP280;56298;49.246;9.410;2023-01-29T01:59:11;100630.91;;;0.04
69186;BMP280;56298;49.246;9.410;2023-01-29T02:01:38;100629.28;;;0.03
69186;BMP280;56298;49.246;9.410;2023-01-29T02:04:10;100631.47;;;0.06
69186;BMP280;56298;49.246;9.410;2023-01-29T02:06:57;100633.59;;;0.04
69186;BMP280;56298;49.246;9.410;2023-01-29T02:09:48;100630.81;;;0.16
69186;BMP280;56298;49.246;9.410;2023-01-29T02:12:15;100632.78;;;0.03
69186;BMP280;56298;49.246;9.410;2023-01-29T02:14:42;100629.00;;;-0.13
69186;BMP280;56298;49.246;9.410;2023-01-29T02:17:16;100635.63;;;-0.04
69186;BMP280;56298;49.246;9.410;2023-01-29T02:25:52;100622.72;;;-0.19
69186;BMP280;56298;49.246;9.410;2023-01-29T02:28:38;100627.44;;;-0.26
69186;BMP280;56298;49.246;9.410;2023-01-29T02:31:21;100617.25;;;-0.36
69186;BMP280;56298;49.246;9.410;2023-01-29T02:36:31;100622.66;;;-0.36
69186;BMP280;56298;49.246;9.410;2023-01-29T02:44:41;100614.13;;;-0.33
69186;BMP280;56298;49.246;9.410;2023-01-29T02:47:21;100616.38;;;-0.42
69186;BMP280;56298;49.246;9.410;2023-01-29T02:50:18;100618.25;;;-0.42
69186;BMP280;56298;49.246;9.410;2023-01-29T02:52:53;100611.69;;;-0.46
69186;BMP280;56298;49.246;9.410;2023-01-29T02:55:27;100614.13;;;-0.62
69186;BMP280;56298;49.246;9.410;2023-01-29T02:57:58;100624.22;;;-0.69
69186;BMP280;56298;49.246;9.410;2023-01-29T03:00:29;100606.34;;;-0.75
69186;BMP280;56298;49.246;9.410;2023-01-29T03:03:01;100604.88;;;-0.66
69186;BMP280;56298;49.246;9.410;2023-01-29T03:05:32;100604.16;;;-0.61
69186;BMP280;56298;49.246;9.410;2023-01-29T03:08:05;100606.47;;;-0.53
69186;BMP280;56298;49.246;9.410;2023-01-29T03:10:39;100608.88;;;-0.69
69186;BMP280;56298;49.246;9.410;2023-01-29T03:13:29;100600.97;;;-0.58
69186;BMP280;56298;49.246;9.410;2023-01-29T03:16:03;100609.13;;;-0.70
69186;BMP280;56298;49.246;9.410;2023-01-29T03:18:36;100611.81;;;-0.70
69186;BMP280;56298;49.246;9.410;2023-01-29T03:21:12;100618.63;;;-0.80
69186;BMP280;56298;49.246;9.410;2023-01-29T03:23:57;100607.34;;;-0.64
69186;BMP280;56298;49.246;9.410;2023-01-29T03:26:43;100608.78;;;-0.45
69186;BMP280;56298;49.246;9.410;2023-01-29T03:29:30;100606.91;;;-0.44
69186;BMP280;56298;49.246;9.410;2023-01-29T03:32:16;100607.06;;;-0.34
69186;BMP280;56298;49.246;9.410;2023-01-29T03:34:47;100603.00;;;-0.36
69186;BMP280;56298;49.246;9.410;2023-01-29T03:39:47;100613.78;;;-0.36
69186;BMP280;56298;49.246;9.410;2023-01-29T03:42:19;100608.63;;;-0.38
69186;BMP280;56298;49.246;9.410;2023-01-29T03:48:05;100614.91;;;-0.49
69186;BMP280;56298;49.246;9.410;2023-01-29T03:50:54;100616.03;;;-0.45
69186;BMP280;56298;49.246;9.410;2023-01-29T03:53:44;100624.47;;;-0.42
69186;BMP280;56298;49.246;9.410;2023-01-29T04:01:50;100634.56;;;-0.49
69186;BMP280;56298;49.246;9.410;2023-01-29T04:04:42;100631.44;;;-0.29
69186;BMP280;56298;49.246;9.410;2023-01-29T04:07:17;100640.97;;;-0.38
69186;BMP280;56298;49.246;9.410;2023-01-29T04:09:50;100632.13;;;-0.33
69186;BMP280;56298;49.246;9.410;2023-01-29T04:12:22;100629.06;;;-0.54
69186;BMP280;56298;49.246;9.410;2023-01-29T04:14:51;100639.94;;;-0.78
69186;BMP280;56298;49.246;9.410;2023-01-29T04:17:22;100647.00;;;-0.60
69186;BMP280;56298;49.246;9.410;2023-01-29T04:19:48;100651.47;;;-0.54
69186;BMP280;56298;49.246;9.410;2023-01-29T04:22:19;100631.47;;;-0.41
69186;BMP280;56298;49.246;9.410;2023-01-29T04:24:46;100635.47;;;-0.43
69186;BMP280;56298;49.246;9.410;2023-01-29T04:30:06;100631.16;;;-0.44
69186;BMP280;56298;49.246;9.410;2023-01-29T04:38:38;100634.09;;;-0.46
69186;BMP280;56298;49.246;9.410;2023-01-29T04:41:17;100633.75;;;-0.49
69186;BMP280;56298;49.246;9.410;2023-01-29T04:46:48;100644.00;;;-0.63
69186;BMP280;56298;49.246;9.410;2023-01-29T04:52:22;100643.28;;;-0.59
69186;BMP280;56298;49.246;9.410;2023-01-29T04:55:08;100632.69;;;-0.48
69186;BMP280;56298;49.246;9.410;2023-01-29T05:00:27;100639.22;;;-0.32
69186;BMP280;56298;49.246;9.410;2023-01-29T05:02:55;100641.91;;;-0.32
69186;BMP280;56298;49.246;9.410;2023-01-29T05:05:21;100643.63;;;-0.26
69186;BMP280;56298;49.246;9.410;2023-01-29T05:07:47;100637.41;;;-0.27
69186;BMP280;56298;49.246;9.410;2023-01-29T05:10:14;100643.22;;;-0.18
69186;BMP280;56298;49.246;9.410;2023-01-29T05:12:43;100645.03;;;-0.06
69186;BMP280;56298;49.246;9.410;2023-01-29T05:15:20;100636.63;;;-0.39
69186;BMP280;56298;49.246;9.410;2023-01-29T05:17:47;100633.63;;;-0.55
69186;BMP280;56298;49.246;9.410;2023-01-29T05:20:12;100639.16;;;-0.61
69186;BMP280;56298;49.246;9.410;2023-01-29T05:22:40;100632.47;;;-0.47
69186;BMP280;56298;49.246;9.410;2023-01-29T05:25:19;100614.72;;;-0.43
69186;BMP280;56298;49.246;9.410;2023-01-29T05:27:47;100612.13;;;-0.37
69186;BMP280;56298;49.246;9.410;2023-01-29T05:30:37;100613.25;;;-0.33
69186;BMP280;56298;49.246;9.410;2023-01-29T05:33:04;100590.63;;;-0.20
69186;BMP280;56298;49.246;9.410;2023-01-29T05:35:30;100590.13;;;-0.17
69186;BMP280;56298;49.246;9.410;2023-01-29T05:37:55;100598.72;;;-0.20
69186;BMP280;56298;49.246;9.410;2023-01-29T05:40:21;100594.28;;;-0.27
69186;BMP280;56298;49.246;9.410;2023-01-29T05:42:47;100600.97;;;-0.29
69186;BMP280;56298;49.246;9.410;2023-01-29T05:45:12;100599.06;;;-0.46
69186;BMP280;56298;49.246;9.410;2023-01-29T05:47:37;100597.97;;;-0.62
69186;BMP280;56298;49.246;9.410;2023-01-29T05:50:03;100601.50;;;-0.73
69186;BMP280;56298;49.246;9.410;2023-01-29T05:52:28;100597.81;;;-0.55
69186;BMP280;56298;49.246;9.410;2023-01-29T05:54:54;100599.44;;;-0.54
69186;BMP280;56298;49.246;9.410;2023-01-29T05:57:19;100602.31;;;-0.44
69186;BMP280;56298;49.246;9.410;2023-01-29T05:59:44;100606.16;;;-0.40
69186;BMP280;56298;49.246;9.410;2023-01-29T06:02:09;100601.06;;;-0.53
69186;BMP280;56298;49.246;9.410;2023-01-29T06:04:35;100606.00;;;-0.50
69186;BMP280;56298;49.246;9.410;2023-01-29T06:07:01;100605.41;;;-0.52
69186;BMP280;56298;49.246;9.410;2023-01-29T06:09:27;100607.63;;;-0.49
69186;BMP280;56298;49.246;9.410;2023-01-29T06:11:53;100603.84;;;-0.48
69186;BMP280;56298;49.246;9.410;2023-01-29T06:14:18;100610.41;;;-0.44
69186;BMP280;56298;49.246;9.410;2023-01-29T06:16:43;100610.75;;;-0.40
69186;BMP280;56298;49.246;9.410;2023-01-29T06:19:08;100602.41;;;-0.38
69186;BMP280;56298;49.246;9.410;2023-01-29T06:21:34;100600.22;;;-0.42
69186;BMP280;56298;49.246;9.410;2023-01-29T06:23:59;100597.59;;;-0.36
69186;BMP280;56298;49.246;9.410;2023-01-29T06:26:24;100594.66;;;-0.35
69186;BMP280;56298;49.246;9.410;2023-01-29T06:28:50;100595.84;;;-0.43
69186;BMP280;56298;49.246;9.410;2023-01-29T06:31:15;100591.69;;;-0.50
69186;BMP280;56298;49.246;9.410;2023-01-29T06:33:41;100599.13;;;-0.58
69186;BMP280;56298;49.246;9.410;2023-01-29T06:36:06;100610.38;;;-0.61
69186;BMP280;56298;49.246;9.410;2023-01-29T06:38:31;100607.75;;;-0.56
69186;BMP280;56298;49.246;9.410;2023-01-29T06:40:57;100609.84;;;-0.46
69186;BMP280;56298;49.246;9.410;2023-01-29T06:43:22;100616.09;;;-0.57
69186;BMP280;56298;49.246;9.410;2023-01-29T06:45:55;100618.44;;;-0.61
69186;BMP280;56298;49.246;9.410;2023-01-29T06:48:21;100616.75;;;-0.50
69186;BMP280;56298;49.246;9.410;2023-01-29T06:50:47;100617.75;;;-0.56
69186;BMP280;56298;49.246;9.410;2023-01-29T06:53:14;100609.50;;;-0.49
69186;BMP280;56298;49.246;9.410;2023-01-29T06:55:40;100612.53;;;-0.46
69186;BMP280;56298;49.246;9.410;2023-01-29T06:58:07;100622.72;;;-0.48
69186;BMP280;56298;49.246;9.410;2023-01-29T07:00:33;100628.09;;;-0.48
69186;BMP280;56298;49.246;9.410;2023-01-29T07:02:58;100623.88;;;-0.44
69186;BMP280;56298;49.246;9.410;2023-01-29T07:05:24;100626.75;;;-0.33
69186;BMP280;56298;49.246;9.410;2023-01-29T07:07:49;100630.16;;;-0.26
69186;BMP280;56298;49.246;9.410;2023-01-29T07:10:14;100631.47;;;-0.11
69186;BMP280;56298;49.246;9.410;2023-01-29T07:12:39;100629.59;;;-0.11
69186;BMP280;56298;49.246;9.410;2023-01-29T07:15:05;100628.59;;;-0.05
69186;BMP280;56298;49.246;9.410;2023-01-29T07:17:31;100631.63;;;-0.01
69186;BMP280;56298;49.246;9.410;2023-01-29T07:19:56;100640.22;;;-0.04
69186;BMP280;56298;49.246;9.410;2023-01-29T07:22:21;100633.75;;;-0.03
69186;BMP280;56298;49.246;9.410;2023-01-29T07:24:46;100633.91;;;0.07
69186;BMP280;56298;49.246;9.410;2023-01-29T07:27:12;100627.97;;;0.05
69186;BMP280;56298;49.246;9.410;2023-01-29T07:29:38;100629.75;;;0.17
69186;BMP280;56298;49.246;9.410;2023-01-29T07:32:03;100627.13;;;0.22
69186;BMP280;56298;49.246;9.410;2023-01-29T07:34:28;100631.03;;;0.31
69186;BMP280;56298;49.246;9.410;2023-01-29T07:36:54;100629.78;;;0.39
69186;BMP280;56298;49.246;9.410;2023-01-29T07:39:20;100645.78;;;0.46
69186;BMP280;56298;49.246;9.410;2023-01-29T07:41:46;100652.50;;;0.43
69186;BMP280;56298;49.246;9.410;2023-01-29T07:44:11;100651.88;;;0.36
69186;BMP280;56298;49.246;9.410;2023-01-29T07:46:36;100662.56;;;0.48
69186;BMP280;56298;49.246;9.410;2023-01-29T07:49:01;100657.00;;;0.37
69186;BMP280;56298;49.246;9.410;2023-01-29T07:51:27;100659.97;;;0.36
69186;BMP280;56298;49.246;9.410;2023-01-29T07:53:52;100662.28;;;0.27
69186;BMP280;56298;49.246;9.410;2023-01-29T07:56:17;100651.28;;;0.34
69186;BMP280;56298;49.246;9.410;2023-01-29T07:58:42;100655.69;;;0.40
69186;BMP280;56298;49.246;9.410;2023-01-29T08:01:08;100659.88;;;0.48
69186;BMP280;56298;49.246;9.410;2023-01-29T08:03:33;100661.97;;;0.46
69186;BMP280;56298;49.246;9.410;2023-01-29T08:05:58;100665.09;;;0.55
69186;BMP280;56298;49.246;9.410;2023-01-29T08:08:24;100669.75;;;0.59
69186;BMP280;56298;49.246;9.410;2023-01-29T08:10:50;100672.25;;;0.66
69186;BMP280;56298;49.246;9.410;2023-01-29T08:13:15;100677.06;;;0.81
69186;BMP280;56298;49.246;9.410;2023-01-29T08:15:44;100667.31;;;0.80
69186;BMP280;56298;49.246;9.410;2023-01-29T08:18:10;100672.88;;;0.90
69186;BMP280;56298;49.246;9.410;2023-01-29T08:20:35;100676.25;;;1.03
69186;BMP280;56298;49.246;9.410;2023-01-29T08:23:02;100667.66;;;1.06
69186;BMP280;56298;49.246;9.410;2023-01-29T08:25:28;100670.25;;;1.18
69186;BMP280;56298;49.246;9.410;2023-01-29T08:27:56;100662.44;;;1.22
69186;BMP280;56298;49.246;9.410;2023-01-29T08:30:22;100669.94;;;1.42
69186;BMP280;56298;49.246;9.410;2023-01-29T08:32:47;100675.09;;;1.43
69186;BMP280;56298;49.246;9.410;2023-01-29T08:35:12;100666.34;;;1.58
69186;BMP280;56298;49.246;9.410;2023-01-29T08:37:37;100674.25;;;1.65
69186;BMP280;56298;49.246;9.410;2023-01-29T08:40:03;100671.06;;;1.74
69186;BMP280;56298;49.246;9.410;2023-01-29T08:42:28;100674.41;;;1.81
69186;BMP280;56298;49.246;9.410;2023-01-29T08:44:53;100678.38;;;1.73
69186;BMP280;56298;49.246;9.410;2023-01-29T08:47:19;100679.06;;;1.91
69186;BMP280;56298;49.246;9.410;2023-01-29T08:49:44;100680.44;;;1.93
69186;BMP280;56298;49.246;9.410;2023-01-29T08:52:09;100678.81;;;1.97
69186;BMP280;56298;49.246;9.410;2023-01-29T08:54:34;100679.41;;;2.00
69186;BMP280;56298;49.246;9.410;2023-01-29T08:57:00;100677.47;;;2.28
69186;BMP280;56298;49.246;9.410;2023-01-29T08:59:25;100683.84;;;2.54
69186;BMP280;56298;49.246;9.410;2023-01-29T09:01:50;100679.50;;;2.48
69186;BMP280;56298;49.246;9.410;2023-01-29T09:04:16;100684.81;;;2.37
69186;BMP280;56298;49.246;9.410;2023-01-29T09:06:41;100681.06;;;2.38
69186;BMP280;56298;49.246;9.410;2023-01-29T09:09:06;100680.63;;;2.14
69186;BMP280;56298;49.246;9.410;2023-01-29T09:11:32;100693.03;;;2.48
69186;BMP280;56298;49.246;9.410;2023-01-29T09:13:57;100691.94;;;2.49
69186;BMP280;56298;49.246;9.410;2023-01-29T09:16:23;100698.56;;;2.74
69186;BMP280;56298;49.246;9.410;2023-01-29T09:18:48;100700.59;;;3.04
69186;BMP280;56298;49.246;9.410;2023-01-29T09:21:13;100693.03;;;3.01
69186;BMP280;56298;49.246;9.410;2023-01-29T09:23:38;100681.97;;;3.18
69186;BMP280;56298;49.246;9.410;2023-01-29T09:26:06;100680.88;;;3.09
69186;BMP280;56298;49.246;9.410;2023-01-29T09:28:31;100669.53;;;3.38
69186;BMP280;56298;49.246;9.410;2023-01-29T09:31:00;100671.97;;;3.29
69186;BMP280;56298;49.246;9.410;2023-01-29T09:33:25;100656.50;;;3.35
69186;BMP280;56298;49.246;9.410;2023-01-29T09:35:50;100652.44;;;3.38
69186;BMP280;56298;49.246;9.410;2023-01-29T09:38:16;100652.47;;;3.43
69186;BMP280;56298;49.246;9.410;2023-01-29T09:43:23;100633.19;;;4.22
69186;BMP280;56298;49.246;9.410;2023-01-29T09:45:56;100625.75;;;4.49
69186;BMP280;56298;49.246;9.410;2023-01-29T09:48:26;100627.56;;;4.74
69186;BMP280;56298;49.246;9.410;2023-01-29T09:50:57;100629.19;;;4.70
69186;BMP280;56298;49.246;9.410;2023-01-29T09:53:39;100634.84;;;4.84
69186;BMP280;56298;49.246;9.410;2023-01-29T09:56:10;100628.19;;;5.06
69186;BMP280;56298;49.246;9.410;2023-01-29T09:58:39;100632.81;;;5.45
69186;BMP280;56298;49.246;9.410;2023-01-29T10:01:12;100631.81;;;5.36
69186;BMP280;56298;49.246;9.410;2023-01-29T10:09:43;100637.16;;;5.12
69186;BMP280;56298;49.246;9.410;2023-01-29T10:12:40;100643.59;;;4.71
69186;BMP280;56298;49.246;9.410;2023-01-29T10:15:45;100642.78;;;4.70
69186;BMP280;56298;49.246;9.410;2023-01-29T10:18:48;100643.50;;;4.91
69186;BMP280;56298;49.246;9.410;2023-01-29T10:24:35;100657.69;;;4.83
69186;BMP280;56298;49.246;9.410;2023-01-29T10:27:02;100644.28;;;5.02
69186;BMP280;56298;49.246;9.410;2023-01-29T10:29:29;100644.47;;;5.11
69186;BMP280;56298;49.246;9.410;2023-01-29T10:31:57;100642.69;;;5.36
69186;BMP280;56298;49.246;9.410;2023-01-29T10:34:32;100641.38;;;5.28
69186;BMP280;56298;49.246;9.410;2023-01-29T10:37:00;100636.25;;;5.21
69186;BMP280;56298;49.246;9.410;2023-01-29T10:39:30;100640.25;;;4.95
69186;BMP280;56298;49.246;9.410;2023-01-29T10:42:32;100650.59;;;4.87
69186;BMP280;56298;49.246;9.410;2023-01-29T10:50:48;100646.03;;;4.83
69186;BMP280;56298;49.246;9.410;2023-01-29T10:56:02;100636.22;;;4.82
69186;BMP280;56298;49.246;9.410;2023-01-29T11:01:18;100614.22;;;4.83
69186;BMP280;56298;49.246;9.410;2023-01-29T11:03:43;100606.91;;;4.68
69186;BMP280;56298;49.246;9.410;2023-01-29T11:06:23;100604.75;;;4.70
69186;BMP280;56298;49.246;9.410;2023-01-29T11:11:49;100601.22;;;4.70
69186;BMP280;56298;49.246;9.410;2023-01-29T11:14:41;100604.00;;;4.59
69186;BMP280;56298;49.246;9.410;2023-01-29T11:17:18;100592.34;;;4.48
69186;BMP280;56298;49.246;9.410;2023-01-29T11:19:45;100581.75;;;4.52
69186;BMP280;56298;49.246;9.410;2023-01-29T11:22:16;100582.28;;;4.49
69186;BMP280;56298;49.246;9.410;2023-01-29T11:24:42;100578.06;;;4.77
69186;BMP280;56298;49.246;9.410;2023-01-29T11:27:24;100577.66;;;4.60
69186;BMP280;56298;49.246;9.410;2023-01-29T11:29:52;100571.72;;;4.47
69186;BMP280;56298;49.246;9.410;2023-01-29T11:37:42;100557.72;;;4.70
69186;BMP280;56298;49.246;9.410;2023-01-29T11:40:37;100547.69;;;4.70
69186;BMP280;56298;49.246;9.410;2023-01-29T11:45:38;100548.88;;;5.04
69186;BMP280;56298;49.246;9.410;2023-01-29T11:48:04;100550.28;;;4.86
69186;BMP280;56298;49.246;9.410;2023-01-29T11:50:35;100546.91;;;5.04
69186;BMP280;56298;49.246;9.410;2023-01-29T11:53:02;100546.44;;;5.32
69186;BMP280;56298;49.246;9.410;2023-01-29T11:55:30;100535.97;;;5.44
69186;BMP280;56298;49.246;9.410;2023-01-29T11:58:03;100544.56;;;5.27
69186;BMP280;56298;49.246;9.410;2023-01-29T12:00:32;100542.91;;;4.97
69186;BMP280;56298;49.246;9.410;2023-01-29T12:03:11;100539.16;;;4.87
69186;BMP280;56298;49.246;9.410;2023-01-29T12:05:39;100528.75;;;5.00
69186;BMP280;56298;49.246;9.410;2023-01-29T12:08:14;100523.47;;;4.74
69186;BMP280;56298;49.246;9.410;2023-01-29T12:10:41;100516.16;;;4.74
69186;BMP280;56298;49.246;9.410;2023-01-29T12:15:39;100496.84;;;4.76
69186;BMP280;56298;49.246;9.410;2023-01-29T12:20:40;100490.44;;;4.56
69186;BMP280;56298;49.246;9.410;2023-01-29T12:26:54;100476.59;;;4.92
69186;BMP280;56298;49.246;9.410;2023-01-29T12:31:49;100466.59;;;5.17
69186;BMP280;56298;49.246;9.410;2023-01-29T12:34:32;100454.69;;;5.13
69186;BMP280;56298;49.246;9.410;2023-01-29T12:37:21;100447.84;;;4.51
69186;BMP280;56298;49.246;9.410;2023-01-29T12:39:48;100450.94;;;4.74
69186;BMP280;56298;49.246;9.410;2023-01-29T12:42:22;100449.16;;;4.94
69186;BMP280;56298;49.246;9.410;2023-01-29T12:45:00;100451.00;;;4.99
69186;BMP280;56298;49.246;9.410;2023-01-29T12:47:32;100436.97;;;5.21
69186;BMP280;56298;49.246;9.410;2023-01-29T12:50:03;100432.25;;;5.02
69186;BMP280;56298;49.246;9.410;2023-01-29T12:52:41;100437.41;;;4.99
69186;BMP280;56298;49.246;9.410;2023-01-29T12:55:17;100432.34;;;4.87
69186;BMP280;56298;49.246;9.410;2023-01-29T12:57:55;100428.81;;;4.86
69186;BMP280;56298;49.246;9.410;2023-01-29T13:00:23;100437.28;;;4.85
69186;BMP280;56298;49.246;9.410;2023-01-29T13:03:02;100448.78;;;4.71
69186;BMP280;56298;49.246;9.410;2023-01-29T13:05:33;100440.06;;;4.74
69186;BMP280;56298;49.246;9.410;2023-01-29T13:08:05;100442.59;;;4.65
69186;BMP280;56298;49.246;9.410;2023-01-29T13:10:35;100435.63;;;4.49
69186;BMP280;56298;49.246;9.410;2023-01-29T13:13:27;100433.50;;;4.46
69186;BMP280;56298;49.246;9.410;2023-01-29T13:15:55;100430.31;;;4.28
69186;BMP280;56298;49.246;9.410;2023-01-29T13:18:45;100437.34;;;4.34
69186;BMP280;56298;49.246;9.410;2023-01-29T13:21:38;100431.91;;;4.39
69186;BMP280;56298;49.246;9.410;2023-01-29T13:24:19;100432.31;;;4.17
69186;BMP280;56298;49.246;9.410;2023-01-29T13:26:46;100431.84;;;3.99
69186;BMP280;56298;49.246;9.410;2023-01-29T13:29:21;100437.84;;;3.86
69186;BMP280;56298;49.246;9.410;2023-01-29T13:31:47;100429.59;;;4.17
69186;BMP280;56298;49.246;9.410;2023-01-29T13:34:21;100424.31;;;4.31
69186;BMP280;56298;49.246;9.410;2023-01-29T13:36:53;100422.63;;;4.46
69186;BMP280;56298;49.246;9.410;2023-01-29T13:39:26;100420.09;;;4.15
69186;BMP280;56298;49.246;9.410;2023-01-29T13:41:53;100422.25;;;4.18
69186;BMP280;56298;49.246;9.410;2023-01-29T13:44:27;100418.97;;;4.21
69186;BMP280;56298;49.246;9.410;2023-01-29T13:46:56;100421.56;;;3.91
69186;BMP280;56298;49.246;9.410;2023-01-29T13:49:44;100420.00;;;3.69
69186;BMP280;56298;49.246;9.410;2023-01-29T13:52:24;100416.84;;;3.52
69186;BMP280;56298;49.246;9.410;2023-01-29T13:54:55;100402.25;;;3.27
69186;BMP280;56298;49.246;9.410;2023-01-29T13:57:48;100399.31;;;2.97
69186;BMP280;56298;49.246;9.410;2023-01-29T14:02:45;100390.91;;;2.83
69186;BMP280;56298;49.246;9.410;2023-01-29T14:10:30;100385.22;;;2.74
69186;BMP280;56298;49.246;9.410;2023-01-29T14:15:42;100395.78;;;2.86
69186;BMP280;56298;49.246;9.410;2023-01-29T14:20:40;100381.97;;;2.83
69186;BMP280;56298;49.246;9.410;2023-01-29T14:23:19;100374.66;;;2.73
69186;BMP280;56298;49.246;9.410;2023-01-29T14:25:45;100373.28;;;2.81
69186;BMP280;56298;49.246;9.410;2023-01-29T14:28:20;100371.94;;;2.73
69186;BMP280;56298;49.246;9.410;2023-01-29T14:30:47;100377.09;;;2.90
69186;BMP280;56298;49.246;9.410;2023-01-29T14:33:30;100388.19;;;2.88
69186;BMP280;56298;49.246;9.410;2023-01-29T14:35:58;100397.94;;;3.10
69186;BMP280;56298;49.246;9.410;2023-01-29T14:38:28;100400.88;;;3.24
69186;BMP280;56298;49.246;9.410;2023-01-29T14:41:06;100403.63;;;3.14
69186;BMP280;56298;49.246;9.410;2023-01-29T14:43:33;100395.22;;;3.21
69186;BMP280;56298;49.246;9.410;2023-01-29T14:48:59;100395.97;;;3.31
69186;BMP280;56298;49.246;9.410;2023-01-29T14:51:25;100396.25;;;3.35
69186;BMP280;56298;49.246;9.410;2023-01-29T14:54:17;100388.16;;;3.30
69186;BMP280;56298;49.246;9.410;2023-01-29T14:56:51;100378.94;;;3.26
69186;BMP280;56298;49.246;9.410;2023-01-29T14:59:28;100383.84;;;3.13
69186;BMP280;56298;49.246;9.410;2023-01-29T15:01:58;100394.16;;;2.85
69186;BMP280;56298;49.246;9.410;2023-01-29T15:04:43;100386.84;;;2.65
69186;BMP280;56298;49.246;9.410;2023-01-29T15:09:45;100379.81;;;2.64
69186;BMP280;56298;49.246;9.410;2023-01-29T15:12:37;100379.78;;;2.43
69186;BMP280;56298;49.246;9.410;2023-01-29T15:15:19;100382.47;;;2.48
69186;BMP280;56298;49.246;9.410;2023-01-29T15:18:00;100381.66;;;2.32
69186;BMP280;56298;49.246;9.410;2023-01-29T15:20:28;100379.50;;;2.29
69186;BMP280;56298;49.246;9.410;2023-01-29T15:22:54;100376.00;;;2.34
69186;BMP280;56298;49.246;9.410;2023-01-29T15:25:20;100368.94;;;2.43
69186;BMP280;56298;49.246;9.410;2023-01-29T15:27:46;100380.59;;;2.44
69186;BMP280;56298;49.246;9.410;2023-01-29T15:30:15;100376.81;;;2.55
69186;BMP280;56298;49.246;9.410;2023-01-29T15:32:41;100371.94;;;2.52
69186;BMP280;56298;49.246;9.410;2023-01-29T15:35:12;100373.03;;;2.56
69186;BMP280;56298;49.246;9.410;2023-01-29T15:37:39;100375.72;;;2.46
69186;BMP280;56298;49.246;9.410;2023-01-29T15:40:12;100370.81;;;2.37
69186;BMP280;56298;49.246;9.410;2023-01-29T15:42:44;100371.41;;;2.34
69186;BMP280;56298;49.246;9.410;2023-01-29T15:45:30;100371.06;;;2.15
69186;BMP280;56298;49.246;9.410;2023-01-29T15:48:11;100364.00;;;2.04
69186;BMP280;56298;49.246;9.410;2023-01-29T15:50:40;100368.31;;;2.00
69186;BMP280;56298;49.246;9.410;2023-01-29T15:53:08;100366.13;;;1.86
69186;BMP280;56298;49.246;9.410;2023-01-29T15:55:38;100364.16;;;1.76
69186;BMP280;56298;49.246;9.410;2023-01-29T15:58:03;100367.41;;;1.73
69186;BMP280;56298;49.246;9.410;2023-01-29T16:00:30;100369.88;;;1.75
69186;BMP280;56298;49.246;9.410;2023-01-29T16:02:56;100371.47;;;1.70
69186;BMP280;56298;49.246;9.410;2023-01-29T16:05:29;100370.59;;;1.60
69186;BMP280;56298;49.246;9.410;2023-01-29T16:07:58;100369.19;;;1.52
69186;BMP280;56298;49.246;9.410;2023-01-29T16:10:27;100372.69;;;1.47